地図

経路データ

SID SEASON NUMBER BASIN SUBBASIN NAME ISO_TIME NATURE LAT LON WMO_WIND WMO_PRES WMO_AGENCY TRACK_TYPE DIST2LAND LANDFALL IFLAG USA_AGENCY USA_ATCF_ID USA_LAT USA_LON USA_RECORD USA_STATUS USA_WIND USA_PRES USA_SSHS USA_R34_NE USA_R34_SE USA_R34_SW USA_R34_NW USA_R50_NE USA_R50_SE USA_R50_SW USA_R50_NW USA_R64_NE USA_R64_SE USA_R64_SW USA_R64_NW USA_POCI USA_ROCI USA_RMW USA_EYE TOKYO_LAT TOKYO_LON TOKYO_GRADE TOKYO_WIND TOKYO_PRES TOKYO_R50_DIR TOKYO_R50_LONG TOKYO_R50_SHORT TOKYO_R30_DIR TOKYO_R30_LONG TOKYO_R30_SHORT TOKYO_LAND CMA_LAT CMA_LON CMA_CAT CMA_WIND CMA_PRES HKO_LAT HKO_LON HKO_CAT HKO_WIND HKO_PRES NEWDELHI_LAT NEWDELHI_LON NEWDELHI_GRADE NEWDELHI_WIND NEWDELHI_PRES NEWDELHI_CI NEWDELHI_DP NEWDELHI_POCI REUNION_LAT REUNION_LON REUNION_TYPE REUNION_WIND REUNION_PRES REUNION_TNUM REUNION_CI REUNION_RMW REUNION_R34_NE REUNION_R34_SE REUNION_R34_SW REUNION_R34_NW REUNION_R50_NE REUNION_R50_SE REUNION_R50_SW REUNION_R50_NW REUNION_R64_NE REUNION_R64_SE REUNION_R64_SW REUNION_R64_NW BOM_LAT BOM_LON BOM_TYPE BOM_WIND BOM_PRES BOM_TNUM BOM_CI BOM_RMW BOM_R34_NE BOM_R34_SE BOM_R34_SW BOM_R34_NW BOM_R50_NE BOM_R50_SE BOM_R50_SW BOM_R50_NW BOM_R64_NE BOM_R64_SE BOM_R64_SW BOM_R64_NW BOM_ROCI BOM_POCI BOM_EYE BOM_POS_METHOD BOM_PRES_METHOD NADI_LAT NADI_LON NADI_CAT NADI_WIND NADI_PRES WELLINGTON_LAT WELLINGTON_LON WELLINGTON_WIND WELLINGTON_PRES DS824_LAT DS824_LON DS824_STAGE DS824_WIND DS824_PRES TD9636_LAT TD9636_LON TD9636_STAGE TD9636_WIND TD9636_PRES TD9635_LAT TD9635_LON TD9635_WIND TD9635_PRES TD9635_ROCI NEUMANN_LAT NEUMANN_LON NEUMANN_CLASS NEUMANN_WIND NEUMANN_PRES MLC_LAT MLC_LON MLC_CLASS MLC_WIND MLC_PRES USA_GUST BOM_GUST BOM_GUST_PER REUNION_GUST REUNION_GUST_PER USA_SEAHGT USA_SEARAD_NE USA_SEARAD_SE USA_SEARAD_SW USA_SEARAD_NW STORM_SPEED STORM_DIR
1969036S13080 1969 9 SI MM ENID:FANNY 1969-02-04 18:00:00 TS -12.9000 80.3000 main 2106 2106 O________OO___ jtwc_sh SH191969 -12.9000 80.3000 -1 -12.9000 80.3000 TC -12.9000 80.3000 7 7 106
1969036S13080 1969 9 SI MM ENID:FANNY 1969-02-04 21:00:00 TS -12.9952 80.6464 main 2117 2117 P________PP___ SH191969 -12.9951 80.6399 -1 -12.9951 80.6399 TC -12.9955 80.6594 7 7 106
1969036S13080 1969 9 SI MM ENID:FANNY 1969-02-05 00:00:00 TS -13.1009 81.0084 main 2129 2129 O________OP___ jtwc_sh SH191969 -13.1000 81.0000 -1 -13.1000 81.0000 TC -13.1027 81.0251 7 7 106
1969036S13080 1969 9 SI MM ENID:FANNY 1969-02-05 01:00:00 TS -13.1296 81.1245 main 2129 2129 P________PP___ SH191969 -13.1390 81.1277 -1 -13.1390 81.1277 TC -13.1430 81.1495 7 8 111
1969036S13080 1969 9 SI MM ENID:FANNY 1969-02-05 03:00:00 TS -13.2353 81.3734 main 2141 2141 P________PP___ SH191969 -13.2275 81.3926 -1 -13.2275 81.3926 TC -13.2335 81.4032 7 7 117
1969036S13080 1969 9 SI MM ENID:FANNY 1969-02-05 06:00:00 TS -13.3789 81.6341 main 2165 2165 O____O___OO_O_ jtwc_sh SH191969 -13.4000 81.8000 -1 -12.8000 80.7000 3 9.90000 -13.4000 81.8000 TC 35 -13.4000 81.8000 2 -12.8000 80.7000 TC 35 7 125
1969036S13080 1969 9 SI MM ENID:FANNY 1969-02-05 09:00:00 TS -13.6199 81.9332 main 2189 2189 P____P___PP_P_ SH191969 -13.6274 82.2001 -1 -13.1276 81.0974 3 -13.6274 82.2001 TC 35 -13.6117 82.2171 2 -13.1276 81.0974 TC 35 7 133
1969036S13080 1969 9 SI MM ENID:FANNY 1969-02-05 12:00:00 TS -13.8617 82.1750 main 2225 2225 O____O___OP_O_ jtwc_sh SH191969 -13.9000 82.6000 -1 -13.5000 81.5000 99 9.90000 -13.9000 82.6000 TC 35 -13.8677 82.6374 2 -13.5000 81.5000 TC 35 8 138
1969036S13080 1969 9 SI MM ENID:FANNY 1969-02-05 15:00:00 TS -14.1981 82.4698 main 2261 2261 P____P___PP_P_ SH191969 -14.1775 83.0076 -1 -13.9425 81.9075 99 -14.1775 83.0076 TC 35 -14.1649 83.0390 2 -13.9425 81.9075 TC 35 9 141
1969036S13080 1969 9 SI MM ENID:FANNY 1969-02-05 16:00:00 TS -14.3232 82.5558 main 2273 2273 P____P___PP_P_ SH191969 -14.2787 83.1413 -1 -14.0970 82.0412 99 -14.2787 83.1413 TC 35 -14.2725 83.1650 2 -14.0970 82.0412 TC 35 10 144
1969036S13080 1969 9 SI MM ENID:FANNY 1969-02-05 18:00:00 TS -14.6062 82.7807 main 2284 2278 O____O___OO_O_ jtwc_sh SH191969 -14.5000 83.4000 -1 -14.4000 82.3000 99 9.90000 -14.5000 83.4000 TC 35 -14.5000 83.4000 2 -14.4000 82.3000 TC 35 11 141
1969036S13080 1969 9 SI MM ENID:FANNY 1969-02-05 21:00:00 TS -15.0531 83.1738 main 2286 2283 P____P___PP_P_ SH191969 -14.8850 83.7874 -1 -14.8074 82.6577 99 -14.8850 83.7874 TC 35 -14.8477 83.7495 2 -14.8074 82.6577 TC 37 12 142
1969036S13080 1969 9 SI MM ENID:FANNY 1969-02-06 00:00:00 TS -15.5472 83.5347 main 2290 2289 O____O___OP_O_ jtwc_sh SH191969 -15.3000 84.1000 -1 -15.2000 83.0000 99 9.90000 -15.3000 84.1000 TC 35 -15.2324 84.0492 2 -15.2000 83.0000 TC 40 12 147
1969036S13080 1969 9 SI MM ENID:FANNY 1969-02-06 03:00:00 TS -16.0307 83.8311 main 2303 2303 P____P___PP_P_ SH191969 -15.6849 84.3100 -1 -15.5850 83.3651 99 -15.6849 84.3100 TC 35 -15.6509 84.2743 2 -15.5850 83.3651 TC 42 11 151
1969036S13080 1969 9 SI MM ENID:FANNY 1969-02-06 04:00:00 TS -16.2129 83.9205 main 2311 2310 P____P___PP_P_ SH191969 -15.8175 84.3533 -1 -15.7175 83.4826 99 -15.8175 84.3533 TC 35 -15.7973 84.3285 2 -15.7175 83.4826 TC 43 11 156
1969036S13080 1969 9 SI MM ENID:FANNY 1969-02-06 06:00:00 TS -16.5421 84.0708 main 2318 2318 O____O___OO_O_ jtwc_sh SH191969 -16.1000 84.4000 -1 -16.0000 83.7000 3 9.90000 -16.1000 84.4000 TC 35 -16.1000 84.4000 2 -16.0000 83.7000 TC 45 10 159
1969036S13080 1969 9 SI MM ENID:FANNY 1969-02-06 09:00:00 TS -17.0134 84.2470 main 2350 2343 P____P___PP_P_ SH191969 -16.5850 84.3951 -1 -16.5149 83.9725 3 -16.5850 84.3951 TC 35 -16.5995 84.4137 2 -16.5149 83.9725 TC 47 10 164
1969036S13080 1969 9 SI MM ENID:FANNY 1969-02-06 12:00:00 TS -17.4697 84.3547 main 2375 2375 O____O___OP_O_ jtwc_sh SH191969 -17.1000 84.3000 -1 -17.0000 84.2000 99 9.90000 -17.1000 84.3000 TC 35 -17.1223 84.3286 2 -17.0000 84.2000 TC 50 9 170
1969036S13080 1969 9 SI MM ENID:FANNY 1969-02-06 15:00:00 TS -17.8736 84.3967 main 2408 2408 P____P___PP_P_ SH191969 -17.6225 84.1651 -1 -17.3150 84.4152 99 -17.6225 84.1651 TC 35 -17.6340 84.1792 2 -17.3150 84.4152 TC 52 8 176
1969036S13080 1969 9 SI MM ENID:FANNY 1969-02-06 16:00:00 TS -18.0004 84.3973 main 2416 2416 P____P___PP_P_ SH191969 -17.7904 84.1109 -1 -17.4059 84.4802 99 -17.7904 84.1109 TC 35 -17.7961 84.1210 2 -17.4059 84.4802 TC 53 8 0
1969036S13080 1969 9 SI MM ENID:FANNY 1969-02-06 18:00:00 TS -18.2499 84.3917 main 2433 2433 O____O___OO_O_ jtwc_sh SH191969 -18.1000 84.0000 -1 -17.6000 84.6000 99 9.90000 -18.1000 84.0000 TC 35 -18.1000 84.0000 2 -17.6000 84.6000 TC 55 7 0
1969036S13080 1969 9 SI MM ENID:FANNY 1969-02-06 21:00:00 TS -18.6163 84.3770 main 2466 2466 P____P___PP_P_ SH191969 -18.4800 83.8574 -1 -17.9775 84.7799 99 -18.4800 83.8574 TC 35 -18.4834 83.8465 2 -17.9775 84.7799 TC 57 7 186
1969036S13080 1969 9 SI MM ENID:FANNY 1969-02-07 00:00:00 TS -18.9741 84.3069 main 2507 2507 O____O___OP_O_ jtwc_sh SH191969 -18.8000 83.7000 -1 -18.4000 84.9000 99 9.90000 -18.8000 83.7000 TC 35 -18.8175 83.6724 2 -18.4000 84.9000 TC 60 7 194
1969036S13080 1969 9 SI MM ENID:FANNY 1969-02-07 03:00:00 TS -19.3364 84.1828 main 2539 2539 P____P___PP_P_ SH191969 -19.1075 83.5000 -1 -18.8424 84.9673 99 -19.1075 83.5000 TC 35 -19.1178 83.4871 2 -18.8424 84.9673 TC 62 8 200
1969036S13080 1969 9 SI MM ENID:FANNY 1969-02-07 04:00:00 TS -19.4557 84.1216 main 2563 2563 P____P___PP_P_ SH191969 -19.2055 83.4309 -1 -18.9945 84.9635 99 -19.2055 83.4309 TC 35 -19.2131 83.4245 2 -18.9945 84.9635 TC 63 8 211
1969036S13080 1969 9 SI MM ENID:FANNY 1969-02-07 06:00:00 TS -19.6881 83.9617 main 2586 2586 O____O___OO_O_ jtwc_sh SH191969 -19.4000 83.3000 -1 -19.3000 84.9000 4 9.90000 -19.4000 83.3000 TC 35 -19.4000 83.3000 2 -19.3000 84.9000 TC 65 9 219
1969036S13080 1969 9 SI MM ENID:FANNY 1969-02-07 09:00:00 TS -20.0253 83.6289 main 2639 2639 P____P___PP_P_ SH191969 -19.7074 83.1499 -1 -19.7576 84.6527 4 -19.7074 83.1499 TC 35 -19.6933 83.1288 2 -19.7576 84.6527 TC 62 10 228
1969036S13080 1969 9 SI MM ENID:FANNY 1969-02-07 12:00:00 TS -20.3401 83.1966 main 2645 2591 O____O___OP_O_ jtwc_sh SH191969 -20.0000 83.0000 -1 -20.2000 84.3000 99 9.90000 -20.0000 83.0000 TC 35 -19.9724 82.9571 2 -20.2000 84.3000 TC 60 11 235
1969036S13080 1969 9 SI MM ENID:FANNY 1969-02-07 15:00:00 TS -20.6398 82.7070 main 2591 2580 P____P___PP_P_ SH191969 -20.2575 82.7925 -1 -20.6524 83.9651 99 -20.2575 82.7925 TC 35 -20.2402 82.7819 2 -20.6524 83.9651 TC 60 11 238
1969036S13080 1969 9 SI MM ENID:FANNY 1969-02-07 16:00:00 TS -20.7330 82.5331 main 2570 2537 P____P___PP_P_ SH191969 -20.3388 82.7230 -1 -20.7861 83.8468 99 -20.3388 82.7230 TC 35 -20.3276 82.7222 2 -20.7861 83.8468 TC 60 11 241
1969036S13080 1969 9 SI MM ENID:FANNY 1969-02-07 18:00:00 TS -20.9078 82.1806 main 2537 2484 O____O___OO_O_ jtwc_sh SH191969 -20.5000 82.6000 -1 -21.0000 83.6000 99 9.90000 -20.5000 82.6000 TC 35 -20.5000 82.6000 2 -21.0000 83.6000 TC 60 11 243
1969036S13080 1969 9 SI MM ENID:FANNY 1969-02-07 21:00:00 TS -21.1310 81.6883 main 2484 2432 P____P___PP_P_ SH191969 -20.7499 82.5147 -1 -21.1373 83.2295 99 -20.7499 82.5147 TC 35 -20.7580 82.5674 2 -21.1373 83.2295 TC 60 10 246
1969036S13080 1969 9 SI MM ENID:FANNY 1969-02-08 00:00:00 TS -21.3284 81.1664 main 2432 2369 O____O___OP_O_ jtwc_sh SH191969 -21.0000 82.4000 -1 -21.2000 82.8000 99 9.90000 -21.0000 82.4000 TC 35 -21.0091 82.5038 2 -21.2000 82.8000 TC 60 11 248
1969036S13080 1969 9 SI MM ENID:FANNY 1969-02-08 03:00:00 TS -21.5288 80.6088 main 2369 2348 P____P___PP_P_ SH191969 -21.2490 82.2345 -1 -21.3419 82.3248 99 -21.2490 82.2345 TC 35 -21.2559 82.2886 2 -21.3419 82.3248 TC 60 11 250
1969036S13080 1969 9 SI MM ENID:FANNY 1969-02-08 04:00:00 TS -21.5939 80.4019 main 2348 2307 P____P___PP_P_ SH191969 -21.3324 82.1318 -1 -21.3940 82.1381 99 -21.3324 82.1318 TC 35 -21.3375 82.1622 2 -21.3940 82.1381 TC 60 13 253
1969036S13080 1969 9 SI MM ENID:FANNY 1969-02-08 06:00:00 TS -21.7205 79.9461 main 2297 2224 O____O___OO_O_ jtwc_sh SH191969 -21.5000 81.8000 -1 -21.5000 81.7000 3 9.90000 -21.5000 81.8000 TC 35 -21.5000 81.8000 2 -21.5000 81.7000 TC 60 15 255
1969036S13080 1969 9 SI MM ENID:FANNY 1969-02-08 09:00:00 TS -21.9142 79.1274 main 2214 2132 P____P___PP_P_ SH191969 -21.7571 80.9649 -1 -21.6651 80.8602 3 -21.7571 80.9649 TC 35 -21.7643 80.8977 2 -21.6651 80.8602 TC 57 17 257
1969036S13080 1969 9 SI MM ENID:FANNY 1969-02-08 12:00:00 TS -22.0865 78.2006 reunion main 2122 2030 O____O___OP_O_ jtwc_sh SH191969 -22.0000 79.8000 -1 -21.8000 79.9000 99 9.90000 -22.0000 79.8000 TC 35 -22.0150 79.7176 2 -21.8000 79.9000 TC 55 18 260
1969036S13080 1969 9 SI MM ENID:FANNY 1969-02-08 15:00:00 TS -22.2224 77.2426 main 2019 1999 P____P___PP_P_ SH191969 -22.2307 78.4378 -1 -21.8642 78.9796 99 -22.2307 78.4378 TC 35 -22.2325 78.3784 2 -21.8642 78.9796 TC 55 18 262
1969036S13080 1969 9 SI MM ENID:FANNY 1969-02-08 16:00:00 TS -22.2612 76.9125 main 1989 1938 P____P___PP_P_ SH191969 -22.2964 77.9534 -1 -21.8768 78.6621 99 -22.2964 77.9534 TC 35 -22.2946 77.9173 2 -21.8768 78.6621 TC 55 18 263
1969036S13080 1969 9 SI MM ENID:FANNY 1969-02-08 18:00:00 TS -22.3247 76.3034 reunion main 1927 1836 O____O___OO_O_ jtwc_sh SH191969 -22.4000 77.0000 -1 -21.9000 78.0000 99 9.90000 -22.4000 77.0000 TC 35 -22.4000 77.0000 2 -21.9000 78.0000 TC 55 17 264
1969036S13080 1969 9 SI MM ENID:FANNY 1969-02-08 21:00:00 TS -22.4027 75.3670 main 1836 1744 P____P___PP_P_ SH191969 -22.4710 75.7268 -1 -21.9337 76.9669 99 -22.4710 75.7268 TC 35 -22.5040 75.7222 2 -21.9337 76.9669 TC 55 17 265
1969036S13080 1969 9 SI MM ENID:FANNY 1969-02-09 00:00:00 TS -22.4613 74.4417 reunion main 1734 1642 O____O___OP_O_ jtwc_sh SH191969 -22.5000 74.5000 -1 -22.0000 75.8000 99 9.90000 -22.5000 74.5000 TC 35 -22.5600 74.4379 2 -22.0000 75.8000 TC 55 18 266
1969036S13080 1969 9 SI MM ENID:FANNY 1969-02-09 03:00:00 TS -22.5240 73.4124 main 1632 1601 P____P___PP_P_ SH191969 -22.5572 73.2202 -1 -22.1441 74.3707 99 -22.5572 73.2202 TC 35 -22.5857 73.1848 2 -22.1441 74.3707 TC 52 19 267
1969036S13080 1969 9 SI MM ENID:FANNY 1969-02-09 04:00:00 TS -22.5167 73.0943 main 1601 1540 P____P___PP_P_ SH191969 -22.5743 72.8019 -1 -22.1984 73.8875 99 -22.5743 72.8019 TC 35 -22.5907 72.7805 2 -22.1984 73.8875 TC 51 19 270
1969036S13080 1969 9 SI MM ENID:FANNY 1969-02-09 06:00:00 TS -22.5182 72.3909 reunion main 1530 1428 O____O___OO_O_ jtwc_sh SH191969 -22.6000 72.0000 -1 -22.3000 73.0000 3 9.90000 -22.6000 72.0000 TC 35 -22.6000 72.0000 2 -22.3000 73.0000 TC 50 19 270
1969036S13080 1969 9 SI MM ENID:FANNY 1969-02-09 09:00:00 TS -22.5097 71.3737 main 1428 1336 P____P___PP_P_ SH191969 -22.5990 70.9047 -1 -22.3826 72.0466 3 -22.5990 70.9047 TC 35 -22.5854 70.9659 2 -22.3826 72.0466 TC 52 18 269
1969036S13080 1969 9 SI MM ENID:FANNY 1969-02-09 12:00:00 TS -22.5548 70.4391 reunion main 1328 1239 O____O___OP_O_ jtwc_sh SH191969 -22.6000 69.9000 -1 -22.5000 71.2000 99 9.90000 -22.6000 69.9000 TC 35 -22.5741 69.9954 2 -22.5000 71.2000 TC 55 18 265
1969036S13080 1969 9 SI MM ENID:FANNY 1969-02-09 15:00:00 TS -22.6585 69.4604 main 1239 1140 P____P___PP_P_ SH191969 -22.6180 68.9943 -1 -22.7278 70.1429 99 -22.6180 68.9943 TC 35 -22.6011 69.0275 2 -22.7278 70.1429 TC 57 19 262
1969036S13080 1969 9 SI MM ENID:FANNY 1969-02-09 18:00:00 TS -22.8200 68.4400 reunion main 1130 1036 O____O___OO_O_ jtwc_sh SH191969 -22.7000 68.0000 -1 -23.0000 69.1000 99 9.90000 -22.7000 68.0000 TC 35 -22.7000 68.0000 2 -23.0000 69.1000 TC 60 20 260
1969036S13080 1969 9 SI MM ENID:FANNY 1969-02-09 21:00:00 TS -23.0038 67.3029 main 1026 925 P____P___PP_P_ SH191969 -22.8560 66.6798 -1 -23.2113 68.2337 99 -22.8560 66.6798 TC 35 -22.8845 66.6875 2 -23.2113 68.2337 TC 60 22 258
1969036S13080 1969 9 SI MM ENID:FANNY 1969-02-10 00:00:00 TS -23.2677 66.1450 reunion main 919 827 O____O___OP_O_ jtwc_sh SH191969 -23.1000 65.3000 -1 -23.5000 67.4000 99 9.90000 -23.1000 65.3000 TC 35 -23.1387 65.3249 2 -23.5000 67.4000 TC 60 22 253
1969036S13080 1969 9 SI MM ENID:FANNY 1969-02-10 03:00:00 TS -23.6579 64.9699 main 832 762 P____P___PP_P_ SH191969 -23.4201 64.0232 -1 -24.0010 66.3768 99 -23.4201 64.0232 TC 35 -23.4474 64.0494 2 -24.0010 66.3768 TC 62 21 248
1969036S13080 1969 9 SI MM ENID:FANNY 1969-02-10 06:00:00 TS -24.0800 64.0000 reunion main 762 731 O____O___OO_O_ jtwc_sh SH191969 -23.8000 63.0000 -1 -24.5000 65.5000 4 9.90000 -23.8000 63.0000 TC 35 -23.8000 63.0000 2 -24.5000 65.5000 TC 65 16 241
1969036S13080 1969 9 SI MM ENID:FANNY 1969-02-10 09:00:00 TS -24.4223 63.4411 main 729 726 P____P___PP_P_ SH191969 -24.1837 62.3718 -1 -24.7863 65.0662 4 -24.1837 62.3718 TC 35 -24.1717 62.3295 2 -24.7863 65.0662 TC 62 11 230
1969036S13080 1969 9 SI MM ENID:FANNY 1969-02-10 12:00:00 TS -24.7581 63.0995 reunion main 733 725 O____O___OP_O_ jtwc_sh SH191969 -24.6000 62.0000 -1 -25.0000 64.8000 99 9.90000 -24.6000 62.0000 TC 35 -24.5904 61.8977 2 -25.0000 64.8000 TC 60 9 222
1969036S13080 1969 9 SI MM ENID:FANNY 1969-02-10 15:00:00 TS -25.1247 62.7512 main 732 725 P____P___PP_P_ SH191969 -25.0498 61.6622 -1 -25.2425 64.4073 99 -25.0498 61.6622 TC 35 -25.0393 61.6171 2 -25.2425 64.4073 TC 55 10 219
1969036S13080 1969 9 SI MM ENID:FANNY 1969-02-10 18:00:00 TS -25.5000 62.4400 reunion main 737 737 O____O___OO_O_ jtwc_sh SH191969 -25.5000 61.4000 -1 -25.5000 64.0000 99 9.90000 -25.5000 61.4000 TC 35 -25.5000 61.4000 2 -25.5000 64.0000 TC 50 9 218
1969036S13080 1969 9 SI MM ENID:FANNY 1969-02-10 21:00:00 TS -25.8531 62.1200 main 752 752 P____P___PP_P_ SH191969 -25.8924 61.1421 -1 -25.7773 63.6071 99 -25.8924 61.1421 TC 35 -25.9260 61.1015 2 -25.7773 63.6071 TC 47 9 218
1969036S13080 1969 9 SI MM ENID:FANNY 1969-02-11 00:00:00 TS -26.2324 61.8091 reunion main 762 762 O____O___OP_O_ jtwc_sh SH191969 -26.3000 60.9000 -1 -26.1000 63.2000 99 9.90000 -26.3000 60.9000 TC 35 -26.3619 60.8457 2 -26.1000 63.2000 TC 45 10 215
1969036S13080 1969 9 SI MM ENID:FANNY 1969-02-11 03:00:00 TS -26.6624 61.4803 main 793 788 P____P___PP_P_ SH191969 -26.7775 60.6498 -1 -26.4701 62.7424 99 -26.7775 60.6498 TC 35 -26.8168 60.6171 2 -26.4701 62.7424 TC 42 11 213
1969036S13080 1969 9 SI MM ENID:FANNY 1969-02-11 06:00:00 MX -27.1400 61.1600 reunion main 818 818 O____O___OO_O_ jtwc_sh SH191969 -27.3000 60.4000 -1 -26.9000 62.3000 3 9.90000 -27.3000 60.4000 TC 35 -27.3000 60.4000 2 -26.9000 62.3000 EX 40 11 209
1969036S13080 1969 9 SI MM ENID:FANNY 1969-02-11 09:00:00 MX -27.6552 60.8588 main 867 863 P____P___PP_P_ SH191969 -27.8425 60.1424 -1 -27.3848 61.9347 3 -27.8425 60.1424 TC 35 -27.8213 60.1399 2 -27.3848 61.9347 EX 40 12 206
1969036S13080 1969 9 SI MM ENID:FANNY 1969-02-11 12:00:00 MX -28.1940 60.5782 reunion main 909 909 O____O___OP_O_ jtwc_sh SH191969 -28.4000 59.9000 -1 -27.9000 61.6000 99 9.90000 -28.4000 59.9000 TC 35 -28.3702 59.8910 2 -27.9000 61.6000 EX 40 12 204
1969036S13080 1969 9 SI MM ENID:FANNY 1969-02-11 15:00:00 MX -28.7177 60.3168 main 942 942 P____P___PP_P_ SH191969 -28.9500 59.6848 -1 -28.3772 61.2715 99 -28.9500 59.6848 TC 35 -28.9339 59.6714 2 -28.3772 61.2715 EX 40 12 203
1969036S13080 1969 9 SI MM ENID:FANNY 1969-02-11 18:00:00 MX -29.2600 60.0600 reunion main 991 986 O____O___OO_O_ jtwc_sh SH191969 -29.5000 59.5000 -1 -28.9000 60.9000 99 9.90000 -29.5000 59.5000 TC 35 -29.5000 59.5000 2 -28.9000 60.9000 EX 40 12 204
1969036S13080 1969 9 SI MM ENID:FANNY 1969-02-11 21:00:00 MX -29.8293 59.7411 main 1024 1024 P____P___PP_P_ SH191969 -30.0500 59.3127 -1 -29.4905 60.3781 99 -30.0500 59.3127 TC 35 -30.0656 59.3239 2 -29.4905 60.3781 EX 40 13 203
1969036S13080 1969 9 SI MM ENID:FANNY 1969-02-12 00:00:00 MX -30.4458 59.4815 reunion main 1078 1078 O____O___OP_O_ jtwc_sh SH191969 -30.6000 59.2000 -1 -30.2000 59.9000 99 9.90000 -30.6000 59.2000 TC 35 -30.6288 59.2076 2 -30.2000 59.9000 EX 40 14 195
1969036S13080 1969 9 SI MM ENID:FANNY 1969-02-12 03:00:00 MX -31.1413 59.3370 main 1144 1144 P____P___PP_P_ SH191969 -31.1573 59.1753 -1 -31.1071 59.5735 99 -31.1573 59.1753 TC 35 -31.1777 59.1873 2 -31.1071 59.5735 EX 40 14 184
1969036S13080 1969 9 SI MM ENID:FANNY 1969-02-12 06:00:00 MX -31.8200 59.3800 reunion main 1221 1221 O____O___OO_O_ jtwc_sh SH191969 -31.7000 59.3000 -1 -32.0000 59.5000 5 9.90000 -31.7000 59.3000 TC 35 -31.7000 59.3000 2 -32.0000 59.5000 EX 40 13 169
1969036S13080 1969 9 SI MM ENID:FANNY 1969-02-12 09:00:00 MX -32.3971 59.6238 main 1290 1290 P____P___PP_P_ SH191969 -32.2224 59.5823 -1 -32.6667 59.6923 5 -32.2224 59.5823 TC 35 -32.2075 59.5697 2 -32.6667 59.6923 EX 40 12 151
1969036S13080 1969 9 SI MM ENID:FANNY 1969-02-12 12:00:00 MX -32.8966 60.0749 reunion main 1358 1358 O____O___OP_O_ jtwc_sh SH191969 -32.7000 60.0000 -1 -33.2000 60.2000 99 9.90000 -32.7000 60.0000 TC 35 -32.6829 59.9743 2 -33.2000 60.2000 EX 40 13 137
1969036S13080 1969 9 SI MM ENID:FANNY 1969-02-12 15:00:00 MX -33.3476 60.6744 main 1420 1420 P____P___PP_P_ SH191969 -33.1300 60.4776 -1 -33.6806 60.9749 99 -33.1300 60.4776 TC 35 -33.1168 60.4672 2 -33.6806 60.9749 EX 40 14 128
1969036S13080 1969 9 SI MM ENID:FANNY 1969-02-12 18:00:00 MX -33.7400 61.3600 reunion main 1486 1486 O____O___OO_O_ jtwc_sh SH191969 -33.5000 61.0000 -1 -34.1000 61.9000 99 9.90000 -33.5000 61.0000 TC 35 -33.5000 61.0000 2 -34.1000 61.9000 EX 40 13 125
1969036S13080 1969 9 SI MM ENID:FANNY 1969-02-12 21:00:00 MX -34.1181 61.9975 main 1550 1550 P____P___PP_P_ SH191969 -33.8222 61.4930 -1 -34.5591 62.7345 99 -33.8222 61.4930 TC 35 -33.8279 61.5322 2 -34.5591 62.7345 EX 40 14 122
1969036S13080 1969 9 SI MM ENID:FANNY 1969-02-13 00:00:00 MX -34.4784 62.7631 reunion main 1622 1622 O____O___OP_O_ jtwc_sh SH191969 -34.1000 62.0000 -1 -34.9000 63.6000 99 9.90000 -34.1000 62.0000 TC 35 -34.1110 62.0576 2 -34.9000 63.6000 EX 40 15 114
1969036S13080 1969 9 SI MM ENID:FANNY 1969-02-13 03:00:00 MX -34.7353 63.7118 main 1625 1582 P____P___PP_P_ SH191969 -34.3556 62.5393 -1 -35.0180 64.5813 99 -34.3556 62.5393 TC 35 -34.3637 62.5791 2 -35.0180 64.5813 EX 40 18 104
1969036S13080 1969 9 SI MM ENID:FANNY 1969-02-13 06:00:00 MX -34.8909 64.8455 reunion main 1582 1550 O____O___OO_O_ jtwc_sh SH191969 -34.6000 63.1000 -1 -35.0000 65.5000 5 9.90000 -34.6000 63.1000 TC 35 -34.6000 63.1000 2 -35.0000 65.5000 EX 40 21 97
1969036S13080 1969 9 SI MM ENID:FANNY 1969-02-13 09:00:00 ET -34.9716 66.2177 main 1550 1547 _____P______P_ SH191969 -1 -34.9716 66.2177 5 TC 2 -34.9716 66.2177 EX 40 16 90
1969036S13080 1969 9 SI MM ENID:FANNY 1969-02-13 12:00:00 ET -34.9000 66.8000 reunion main 1555 1552 _____O______O_ -1 -34.9000 66.8000 99 9.90000 2 -34.9000 66.8000 EX 40 9 81
1969036S13080 1969 9 SI MM ENID:FANNY 1969-02-13 15:00:00 ET -34.8296 67.3296 main 1562 1560 _____P______P_ -1 -34.8296 67.3296 99 2 -34.8296 67.3296 EX 37 8 76
1969036S13080 1969 9 SI MM ENID:FANNY 1969-02-13 18:00:00 ET -34.7000 67.8000 reunion main 1570 1570 _____O______O_ -1 -34.7000 67.8000 99 9.90000 -34.7000 67.8000 EX 35 9 64
1969036S13080 1969 9 SI MM ENID:FANNY 1969-02-13 21:00:00 ET -34.4498 68.2654 main 1602 1602 _____P______P_ -1 -34.4498 68.2654 99 -34.4498 68.2654 EX 35 9 56
1969036S13080 1969 9 SI MM ENID:FANNY 1969-02-14 00:00:00 ET -34.2000 68.7000 reunion main 1624 1624 _____O______O_ -1 -34.2000 68.7000 99 9.90000 -34.2000 68.7000 EX 35 7 60
1969036S13080 1969 9 SI MM ENID:FANNY 1969-02-14 03:00:00 ET -34.0765 69.0469 main 1635 1635 _____P______P_ -1 -34.0765 69.0469 99 -34.0765 69.0469 EX 35 7 73
1969036S13080 1969 9 SI MM ENID:FANNY 1969-02-14 06:00:00 MX -34.0000 69.5000 reunion main 1646 1646 _____O______O_ -1 -34.0000 69.5000 6 9.90000 -34.0000 69.5000 EX 35 10 80
1969036S13080 1969 9 SI MM ENID:FANNY 1969-02-14 09:00:00 MX -33.9004 70.2401 main 1660 1660 _____P______P_ -1 -33.9004 70.2401 6 -33.9004 70.2401 EX 32 13 81
1969036S13080 1969 9 SI MM ENID:FANNY 1969-02-14 12:00:00 ET -33.8000 71.1000 reunion main 1677 1677 _____O______O_ -1 -33.8000 71.1000 99 9.90000 -33.8000 71.1000 EX 30 14 80
1969036S13080 1969 9 SI MM ENID:FANNY 1969-02-14 15:00:00 ET -33.6695 71.9006 main 1696 1696 _____P______P_ -1 -33.6695 71.9006 99 -33.6695 71.9006 EX 30 13 81
1969036S13080 1969 9 SI MM ENID:FANNY 1969-02-14 18:00:00 ET -33.6000 72.7000 reunion main 1718 1718 _____O______O_ -1 -33.6000 72.7000 99 9.90000 -33.6000 72.7000 EX 30 13 90
1969036S13080 1969 9 SI MM ENID:FANNY 1969-02-14 21:00:00 ET -33.6656 73.4544 main 1720 1718 _____P______P_ -1 -33.6679 73.4322 99 -33.6610 73.4989 EX 30 13 99
1969036S13080 1969 9 SI MM ENID:FANNY 1969-02-15 00:00:00 ET -33.8000 74.3000 reunion main 1724 1724 _____O______O_ -1 -33.8000 74.3000 99 9.90000 -33.8000 74.3000 EX 30 17 98
1969036S13080 1969 9 SI MM ENID:FANNY 1969-02-15 03:00:00 NR -33.9141 75.4597 main 1740 1739 _____P________ -1 -33.9141 75.4597 99 EX 21 96
1969036S13080 1969 9 SI MM ENID:FANNY 1969-02-15 06:00:00 TS -34.0000 76.8000 reunion main 1757 _____O________ -1 -34.0000 76.8000 6 9.90000 22 94

IBTrACS Databaseについて

本データベースは、米国NOAAが公開する1842年以降の世界の熱帯低気圧のベストトラックデータアーカイブInternational Best Track Archive for Climate Stewardship (IBTrACS)を、ウェブで閲覧しやすい形式に変換したものです。

最終更新日:2021-10-25